createdAt,value
2022-10-26T00:01:20.740Z,0.75
2022-10-26T00:04:42.962Z,0.60
2022-10-26T00:08:05.673Z,0.82
2022-10-26T00:11:27.885Z,1.05
2022-10-26T00:14:49.980Z,0.85
2022-10-26T00:18:12.118Z,0.95
2022-10-26T00:21:34.255Z,0.90
2022-10-26T00:24:56.405Z,1.10
2022-10-26T00:28:18.521Z,0.68
2022-10-26T00:31:40.692Z,1.00
2022-10-26T00:35:10.675Z,0.80
2022-10-26T00:38:48.105Z,0.80
2022-10-26T00:42:16.226Z,0.90
2022-10-26T00:45:38.523Z,0.65
2022-10-26T00:49:05.079Z,1.08
2022-10-26T00:52:28.729Z,1.10
2022-10-26T00:55:53.795Z,1.25
2022-10-26T01:02:39.013Z,0.98
2022-10-26T01:06:03.523Z,0.80
2022-10-26T01:09:25.771Z,1.00
2022-10-26T01:12:48.281Z,1.83
2022-10-26T01:16:40.758Z,0.70
2022-10-26T01:20:33.461Z,1.13
2022-10-26T01:24:05.173Z,0.70
2022-10-26T01:27:30.037Z,0.93
2022-10-26T01:30:54.041Z,0.65
2022-10-26T01:34:29.503Z,0.73
2022-10-26T01:41:44.776Z,0.63
2022-10-26T01:45:09.807Z,0.60
2022-10-26T01:48:34.480Z,0.90
2022-10-26T01:51:56.570Z,0.52
2022-10-26T01:55:44.565Z,0.65
2022-10-26T01:59:26.650Z,0.52
2022-10-26T02:02:59.841Z,0.80
2022-10-26T02:06:51.084Z,0.73
2022-10-26T02:10:42.172Z,0.85
2022-10-26T02:14:33.627Z,0.70
2022-10-26T02:18:18.237Z,0.77
2022-10-26T02:21:48.813Z,0.82
2022-10-26T02:25:20.449Z,0.60
2022-10-26T02:28:49.714Z,0.85
2022-10-26T02:32:12.980Z,0.60
2022-10-26T02:35:37.821Z,0.70
2022-10-26T02:39:03.375Z,0.68
2022-10-26T02:42:27.612Z,0.52
2022-10-26T02:45:54.795Z,0.80
2022-10-26T02:49:17.540Z,0.68
2022-10-26T02:53:12.430Z,0.77
2022-10-26T02:56:43.026Z,0.85
2022-10-26T03:00:13.371Z,0.60
2022-10-26T03:03:35.775Z,0.63
2022-10-26T03:06:58.020Z,0.55
2022-10-26T03:10:20.741Z,0.60
2022-10-26T03:13:43.135Z,0.70
2022-10-26T03:17:05.327Z,0.55
2022-10-26T03:20:27.646Z,0.63
2022-10-26T03:23:50.554Z,0.70
2022-10-26T03:27:12.713Z,1.30
2022-10-26T03:30:34.900Z,0.55
2022-10-26T03:33:57.124Z,0.50
2022-10-26T03:37:19.244Z,0.55
2022-10-26T03:40:41.574Z,0.90
2022-10-26T03:44:03.789Z,0.90
2022-10-26T03:47:25.988Z,0.73
2022-10-26T03:50:48.173Z,0.70
2022-10-26T03:54:10.386Z,0.60
2022-10-26T03:57:32.585Z,0.63
2022-10-26T04:00:54.751Z,0.50
2022-10-26T04:04:16.957Z,0.50
2022-10-26T04:07:39.127Z,0.70
2022-10-26T04:11:03.809Z,0.68
2022-10-26T04:14:26.919Z,0.80
2022-10-26T04:17:54.889Z,0.80
2022-10-26T04:21:17.190Z,0.70
2022-10-26T04:24:39.293Z,0.80
2022-10-26T04:28:03.146Z,1.10
2022-10-26T04:31:25.253Z,0.90
2022-10-26T04:34:47.465Z,0.43
2022-10-26T04:38:10.507Z,0.88
2022-10-26T04:41:32.620Z,0.82
2022-10-26T04:44:54.729Z,0.82
2022-10-26T04:48:17.218Z,0.60
2022-10-26T04:51:39.330Z,1.23
2022-10-26T04:55:02.118Z,0.40
2022-10-26T04:58:24.354Z,1.00
2022-10-26T05:01:46.715Z,1.00
2022-10-26T05:05:11.325Z,1.20
2022-10-26T05:08:36.427Z,0.63
2022-10-26T05:11:58.563Z,0.90
2022-10-26T05:15:20.846Z,0.93
2022-10-26T05:18:43.021Z,0.90
2022-10-26T05:22:05.155Z,0.80
2022-10-26T05:25:29.279Z,0.70
2022-10-26T05:28:52.213Z,0.63
2022-10-26T05:32:14.389Z,0.60
2022-10-26T05:35:37.307Z,0.55
2022-10-26T05:38:59.909Z,0.85
2022-10-26T05:42:22.817Z,0.88
2022-10-26T05:45:45.189Z,0.82
2022-10-26T05:49:07.333Z,0.88
2022-10-26T05:52:29.417Z,1.17
2022-10-26T05:55:51.886Z,0.90
2022-10-26T05:59:16.301Z,0.50
2022-10-26T06:03:15.301Z,0.82
2022-10-26T06:06:44.494Z,1.00
2022-10-26T06:10:07.264Z,0.68
2022-10-26T06:13:29.658Z,0.75
2022-10-26T06:17:22.369Z,0.88
2022-10-26T06:20:54.506Z,1.00
2022-10-26T06:24:51.985Z,0.90
2022-10-26T06:28:27.443Z,0.85
2022-10-26T06:31:51.269Z,0.82
2022-10-26T06:35:20.340Z,0.70
2022-10-26T06:38:44.669Z,0.90
2022-10-26T06:42:08.994Z,0.53
2022-10-26T06:45:31.599Z,0.67
2022-10-26T06:49:02.306Z,0.75
2022-10-26T06:52:48.777Z,0.75
2022-10-26T06:56:12.664Z,0.90
2022-10-26T06:59:43.900Z,1.00
2022-10-26T07:03:06.240Z,0.75
2022-10-26T07:06:28.587Z,1.40
2022-10-26T07:09:50.794Z,0.70
2022-10-26T07:13:13.069Z,0.50
2022-10-26T07:16:35.385Z,0.50
2022-10-26T07:19:57.761Z,0.65
2022-10-26T07:23:19.921Z,0.85
2022-10-26T07:26:42.217Z,0.77
2022-10-26T07:30:05.192Z,0.65
2022-10-26T07:33:27.424Z,0.45
2022-10-26T07:36:51.456Z,0.60
2022-10-26T07:40:13.713Z,0.73
2022-10-26T07:43:36.097Z,0.63
2022-10-26T07:46:58.662Z,0.80
2022-10-26T07:50:21.418Z,0.60
2022-10-26T07:53:43.687Z,0.80
2022-10-26T08:00:33.187Z,0.70
2022-10-26T08:03:55.509Z,0.60
2022-10-26T08:07:18.244Z,0.60
2022-10-26T08:10:47.045Z,0.68
2022-10-26T08:14:10.926Z,0.60
2022-10-26T08:17:33.257Z,0.80
2022-10-26T08:21:01.790Z,0.73
2022-10-26T08:24:32.346Z,0.60
2022-10-26T08:27:54.493Z,0.65
2022-10-26T08:31:16.789Z,0.85
2022-10-26T08:34:38.942Z,0.88
2022-10-26T08:38:01.181Z,1.15
2022-10-26T08:41:38.368Z,0.77
2022-10-26T08:45:28.763Z,0.80
2022-10-26T08:49:02.720Z,1.00
2022-10-26T08:52:32.829Z,0.90
2022-10-26T08:56:15.925Z,0.98
2022-10-26T08:59:48.403Z,0.80
2022-10-26T09:03:17.886Z,0.90
2022-10-26T09:07:06.038Z,0.93
2022-10-26T09:10:41.380Z,0.85
2022-10-26T09:17:50.023Z,0.60
2022-10-26T09:21:35.009Z,0.93
2022-10-26T09:25:05.471Z,0.82
2022-10-26T09:28:35.113Z,0.93
2022-10-26T09:32:00.332Z,0.90
2022-10-26T09:38:58.879Z,0.63
2022-10-26T09:42:27.400Z,0.70
2022-10-26T09:45:52.146Z,0.73
2022-10-26T09:49:17.481Z,0.90
2022-10-26T09:52:39.606Z,0.73
2022-10-26T09:56:09.477Z,0.70
2022-10-26T09:59:36.026Z,0.70
2022-10-26T10:02:59.008Z,0.80
2022-10-26T10:06:21.211Z,0.60
2022-10-26T10:09:43.321Z,0.82
2022-10-26T10:13:17.120Z,0.73
2022-10-26T10:16:39.508Z,1.10
2022-10-26T10:20:12.931Z,0.70
2022-10-26T10:23:37.504Z,0.65
2022-10-26T10:27:20.134Z,0.43
2022-10-26T10:30:54.475Z,0.80
2022-10-26T10:34:17.693Z,0.50
2022-10-26T10:37:44.281Z,0.57
2022-10-26T10:41:15.680Z,0.90
2022-10-26T10:44:37.857Z,1.80
2022-10-26T10:48:13.601Z,8.18
2022-10-26T10:51:39.886Z,29.90
2022-10-26T10:55:13.706Z,118.53
2022-10-26T10:58:52.875Z,103.72
2022-10-26T11:02:42.133Z,86.10
2022-10-26T11:06:11.361Z,89.72
2022-10-26T11:09:39.308Z,90.25
2022-10-26T11:13:07.606Z,85.30
2022-10-26T11:16:34.973Z,77.05
2022-10-26T11:20:04.475Z,69.35
2022-10-26T11:23:38.252Z,77.38
2022-10-26T11:27:21.922Z,75.57
2022-10-26T11:30:52.096Z,75.25
2022-10-26T11:34:37.766Z,51.22
2022-10-26T11:41:39.961Z,53.50
2022-10-26T11:45:19.831Z,53.63
2022-10-26T11:48:54.536Z,49.70
2022-10-26T11:52:24.148Z,47.10
2022-10-26T11:55:52.988Z,46.97
2022-10-26T11:59:27.969Z,47.95
2022-10-26T12:03:12.395Z,43.45
2022-10-26T12:06:35.630Z,42.13
2022-10-26T12:10:00.924Z,40.88
2022-10-26T12:13:23.069Z,39.30
2022-10-26T12:17:17.203Z,37.10
2022-10-26T12:21:04.535Z,34.40
2022-10-26T12:24:30.050Z,33.97
2022-10-26T12:27:56.779Z,29.60
2022-10-26T12:31:37.096Z,28.63
2022-10-26T12:35:02.532Z,29.25
2022-10-26T12:38:25.206Z,29.23
2022-10-26T12:41:57.736Z,27.48
2022-10-26T12:45:21.346Z,27.25
2022-10-26T12:48:48.600Z,24.58
2022-10-26T12:52:41.051Z,25.98
2022-10-26T12:56:09.250Z,23.05
2022-10-26T12:59:42.411Z,23.45
2022-10-26T13:03:20.290Z,22.17
2022-10-26T13:07:00.131Z,22.45
2022-10-26T13:10:25.557Z,19.63
2022-10-26T13:14:07.635Z,19.17
2022-10-26T13:21:05.670Z,17.27
2022-10-26T13:24:32.505Z,16.83
2022-10-26T13:28:02.203Z,16.08
2022-10-26T13:31:24.429Z,16.88
2022-10-26T13:34:47.307Z,18.08
2022-10-26T13:38:12.939Z,16.73
2022-10-26T13:41:41.159Z,16.63
2022-10-26T13:45:13.848Z,14.35
2022-10-26T13:48:41.099Z,15.68
2022-10-26T13:52:06.343Z,15.25
2022-10-26T13:55:40.277Z,14.68
2022-10-26T13:59:10.248Z,14.50
2022-10-26T14:02:32.464Z,13.68
2022-10-26T14:05:56.095Z,12.98
2022-10-26T14:09:20.022Z,13.13
2022-10-26T14:12:43.069Z,12.23
2022-10-26T14:16:10.793Z,11.63
2022-10-26T14:19:40.734Z,11.68
2022-10-26T14:23:02.940Z,9.82
2022-10-26T14:26:40.271Z,9.70
2022-10-26T14:30:21.464Z,10.60
2022-10-26T14:33:44.155Z,10.18
2022-10-26T14:37:07.452Z,9.18
2022-10-26T14:40:34.766Z,8.57
2022-10-26T14:43:58.926Z,9.20
2022-10-26T14:47:29.647Z,8.43
2022-10-26T14:50:59.695Z,8.27
2022-10-26T14:54:25.482Z,7.90
2022-10-26T14:57:50.989Z,8.07
2022-10-26T15:01:22.148Z,7.57
2022-10-26T15:04:59.860Z,8.45
2022-10-26T15:08:56.910Z,7.57
2022-10-26T15:12:28.579Z,6.68
2022-10-26T15:15:54.910Z,5.82
2022-10-26T15:19:23.805Z,6.50
2022-10-26T15:22:58.255Z,5.63
2022-10-26T15:26:20.842Z,6.00
2022-10-26T15:29:46.191Z,6.55
2022-10-26T15:33:21.826Z,6.10
2022-10-26T15:36:44.082Z,6.03
2022-10-26T15:40:07.019Z,5.97
2022-10-26T15:43:29.362Z,6.00
2022-10-26T15:46:51.679Z,6.55
2022-10-26T15:50:16.320Z,5.63
2022-10-26T15:53:38.521Z,4.70
2022-10-26T15:57:02.079Z,4.63
2022-10-26T16:00:24.372Z,5.05
2022-10-26T16:03:47.273Z,5.38
2022-10-26T16:07:14.233Z,4.45
2022-10-26T16:10:36.467Z,5.10
2022-10-26T16:14:01.247Z,4.53
2022-10-26T16:17:25.908Z,4.63
2022-10-26T16:20:48.235Z,4.65
2022-10-26T16:24:10.472Z,4.65
2022-10-26T16:27:32.658Z,4.10
2022-10-26T16:31:06.214Z,4.22
2022-10-26T16:34:28.420Z,3.80
2022-10-26T16:37:50.582Z,4.20
2022-10-26T16:41:15.479Z,4.07
2022-10-26T16:44:38.026Z,4.35
2022-10-26T16:48:00.306Z,3.88
2022-10-26T16:51:24.949Z,3.17
2022-10-26T16:54:48.556Z,2.92
2022-10-26T16:58:10.858Z,3.25
2022-10-26T17:01:33.581Z,3.67
2022-10-26T17:04:56.032Z,3.65
2022-10-26T17:08:18.194Z,2.67
2022-10-26T17:11:40.403Z,3.22
2022-10-26T17:15:02.613Z,2.95
2022-10-26T17:18:24.822Z,3.10
2022-10-26T17:21:47.030Z,3.00
2022-10-26T17:25:09.431Z,3.33
2022-10-26T17:28:31.815Z,3.33
2022-10-26T17:31:54.011Z,3.00
2022-10-26T17:35:16.963Z,2.63
2022-10-26T17:38:41.017Z,2.72
2022-10-26T17:42:03.491Z,3.30
2022-10-26T17:45:26.049Z,2.85
2022-10-26T17:48:48.334Z,2.78
2022-10-26T17:52:11.618Z,3.17
2022-10-26T17:55:33.895Z,3.00
2022-10-26T17:59:04.958Z,2.70
2022-10-26T18:02:27.278Z,3.33
2022-10-26T18:05:52.752Z,3.03
2022-10-26T18:09:14.915Z,2.83
2022-10-26T18:12:37.171Z,3.00
2022-10-26T18:16:10.159Z,3.30
2022-10-26T18:19:32.307Z,3.05
2022-10-26T18:22:55.653Z,4.00
2022-10-26T18:26:20.094Z,3.00
2022-10-26T18:29:42.285Z,4.00
2022-10-26T18:33:04.545Z,3.08
2022-10-26T18:36:27.502Z,2.67
2022-10-26T18:39:49.874Z,4.15
2022-10-26T18:43:12.053Z,4.65
2022-10-26T18:46:39.967Z,4.63
2022-10-26T18:50:02.218Z,4.35
2022-10-26T18:53:24.643Z,4.93
2022-10-26T18:56:46.963Z,4.88
2022-10-26T19:00:09.675Z,4.60
2022-10-26T19:03:31.853Z,4.45
2022-10-26T19:06:54.062Z,3.80
2022-10-26T19:10:16.308Z,3.83
2022-10-26T19:13:38.867Z,3.80
2022-10-26T19:17:02.535Z,3.67
2022-10-26T19:20:24.784Z,3.67
2022-10-26T19:23:52.087Z,3.00
2022-10-26T19:27:14.421Z,3.45
2022-10-26T19:30:38.800Z,2.88
2022-10-26T19:34:01.757Z,2.73
2022-10-26T19:37:28.161Z,2.40
2022-10-26T19:41:06.959Z,2.78
2022-10-26T19:44:29.222Z,2.35
2022-10-26T19:47:51.878Z,2.58
2022-10-26T19:51:14.526Z,2.65
2022-10-26T19:54:36.702Z,2.22
2022-10-26T19:57:58.935Z,2.00
2022-10-26T20:01:21.250Z,1.88
2022-10-26T20:04:45.242Z,2.22
2022-10-26T20:08:08.150Z,2.00
2022-10-26T20:11:32.297Z,2.10
2022-10-26T20:14:54.772Z,1.95
2022-10-26T20:18:17.886Z,1.67
2022-10-26T20:21:40.144Z,2.20
2022-10-26T20:25:02.416Z,2.03
2022-10-26T20:28:24.713Z,1.75
2022-10-26T20:31:46.936Z,1.58
2022-10-26T20:35:09.348Z,2.13
2022-10-26T20:38:31.972Z,2.15
2022-10-26T20:41:54.493Z,1.90
2022-10-26T20:45:32.187Z,1.67
2022-10-26T20:48:55.040Z,2.20
2022-10-26T20:52:22.989Z,2.03
2022-10-26T20:55:54.177Z,1.75
2022-10-26T20:59:30.523Z,1.45
2022-10-26T21:02:52.910Z,1.73
2022-10-26T21:06:15.175Z,1.70
2022-10-26T21:09:37.401Z,1.73
2022-10-26T21:12:59.626Z,1.40
2022-10-26T21:19:49.111Z,1.50
2022-10-26T21:23:11.441Z,1.70
2022-10-26T21:26:33.680Z,1.70
2022-10-26T21:29:55.984Z,1.88
2022-10-26T21:33:20.087Z,1.60
2022-10-26T21:36:44.971Z,1.60
2022-10-26T21:40:08.028Z,1.20
2022-10-26T21:43:30.909Z,1.55
2022-10-26T21:46:53.078Z,1.85
2022-10-26T21:50:15.356Z,1.65
2022-10-26T21:53:37.554Z,1.35
2022-10-26T21:56:59.848Z,1.40
2022-10-26T22:00:22.137Z,1.10
2022-10-26T22:03:45.262Z,1.40
2022-10-26T22:07:07.509Z,1.10
2022-10-26T22:10:29.669Z,1.50
2022-10-26T22:13:52.530Z,1.10
2022-10-26T22:17:14.756Z,1.30
2022-10-26T22:20:36.896Z,1.30
2022-10-26T22:23:59.056Z,1.50
2022-10-26T22:27:21.290Z,1.10
2022-10-26T22:30:43.522Z,1.30
2022-10-26T22:34:08.323Z,1.38
2022-10-26T22:37:30.598Z,1.30
2022-10-26T22:40:56.715Z,1.15
2022-10-26T22:44:18.919Z,1.20
2022-10-26T22:47:41.069Z,0.93
2022-10-26T22:51:07.048Z,1.20
2022-10-26T22:54:29.224Z,1.20
2022-10-26T22:57:51.621Z,1.17
2022-10-26T23:01:16.963Z,1.30
2022-10-26T23:04:39.292Z,1.17
2022-10-26T23:08:01.609Z,1.20
2022-10-26T23:11:25.327Z,1.10
2022-10-26T23:14:47.428Z,1.13
2022-10-26T23:18:09.547Z,1.17
2022-10-26T23:21:31.957Z,1.17
2022-10-26T23:24:54.215Z,0.90
2022-10-26T23:28:16.556Z,1.25
2022-10-26T23:31:38.724Z,0.95
2022-10-26T23:35:00.927Z,1.30
2022-10-26T23:38:23.955Z,1.33
2022-10-26T23:41:46.182Z,1.10
2022-10-26T23:45:08.600Z,1.00
2022-10-26T23:48:31.149Z,1.10
2022-10-26T23:51:53.291Z,1.02
2022-10-26T23:55:16.482Z,0.95
2022-10-26T23:58:38.664Z,1.00
